Time;durP1;ratioP1;P1;durP2;ratioP2;P2;SDS_P1;SDS_P2;PMS_P1;PMS_P2;Temp;Humidity;BMP_temperature;BMP_pressure;BME280_temperature;BME280_humidity;BME280_pressure;Samples;Min_cycle;Max_cycle;Signal;HPM_P1;HPM_P2
2022/01/02 00:02:29;;;;;;;5.18;4.78;;;;;;;28.41;48.02;101259.03;5019128;28;70565;-39
2022/01/02 00:05:21;;;;;;;5.68;5.03;;;;;;;28.43;48.82;101252.44;5020999;28;66702;-40
2022/01/02 00:08:11;;;;;;;8.48;5.35;;;;;;;28.33;48.32;101234.88;5022327;28;70882;-39
2022/01/02 00:11:01;;;;;;;5.43;4.93;;;;;;;28.51;48.38;101252.28;5016946;28;66449;-40
2022/01/02 00:13:55;;;;;;;5.38;4.97;;;;;;;28.35;49.09;101228.25;5014390;28;70190;-40
2022/01/02 00:16:43;;;;;;;5.15;4.75;;;;;;;28.54;48.89;101266.44;5018214;28;66407;-39
2022/01/02 00:19:32;;;;;;;6.47;5.88;;;;;;;28.61;50.30;101275.41;5011980;28;69747;-40
2022/01/02 00:22:35;;;;;;;8.32;6.00;;;;;;;28.64;51.03;101275.00;5026279;28;65483;-39
2022/01/02 00:25:29;;;;;;;;;;;;;;;28.43;53.76;101279.41;5019181;28;70406;-40
2022/01/02 00:28:18;;;;;;;16.98;7.40;;;;;;;28.70;52.10;101287.75;5021731;28;66494;-40
2022/01/02 00:31:07;;;;;;;10.18;7.30;;;;;;;28.74;53.33;101291.72;5015699;28;70583;-39
2022/01/02 00:33:55;;;;;;;21.33;7.70;;;;;;;28.80;53.48;101287.38;5013390;28;66511;-38
2022/01/02 00:36:43;;;;;;;20.23;7.80;;;;;;;28.83;53.55;101293.22;5020577;28;70616;-39
2022/01/02 00:39:33;;;;;;;17.58;8.05;;;;;;;28.88;53.74;101298.88;5010638;28;65968;-39
2022/01/02 00:42:36;;;;;;;30.20;9.13;;;;;;;28.91;54.89;101295.78;5012780;28;70571;-41
2022/01/02 00:45:27;;;;;;;23.20;7.53;;;;;;;28.94;53.87;101297.25;5013680;28;66590;-40
2022/01/02 00:48:29;;;;;;;13.57;7.28;;;;;;;28.92;55.06;101300.16;5011623;28;70460;-40
2022/01/02 00:51:34;;;;;;;22.67;7.97;;;;;;;29.01;55.48;101306.25;5020375;28;65658;-41
2022/01/02 00:54:27;;;;;;;25.08;8.35;;;;;;;29.10;54.28;101317.75;5011661;28;70419;-41
2022/01/02 00:57:17;;;;;;;21.23;7.75;;;;;;;28.94;54.94;101291.84;5019323;28;66380;-41
2022/01/02 01:00:11;;;;;;;14.05;8.35;;;;;;;29.13;54.37;101317.34;5009736;28;70510;-40
2022/01/02 01:03:09;;;;;;;17.15;8.65;;;;;;;29.14;55.83;101324.41;5014182;28;66235;-39
2022/01/02 01:06:04;;;;;;;18.38;9.40;;;;;;;29.16;55.62;101323.19;5014827;28;70213;-41
2022/01/02 01:08:57;;;;;;;14.20;8.70;;;;;;;29.18;55.45;101320.31;5016558;28;66421;-39
2022/01/02 01:11:47;;;;;;;10.80;8.35;;;;;;;29.22;54.99;101326.13;5006157;28;70368;-40
2022/01/02 01:14:36;;;;;;;10.82;8.48;;;;;;;29.23;55.10;101327.81;5020349;28;66232;-39
2022/01/02 01:17:25;;;;;;;16.63;7.75;;;;;;;29.23;55.13;101317.00;5016912;28;70149;-39
2022/01/02 01:20:14;;;;;;;11.20;7.97;;;;;;;29.25;55.02;101323.88;5026820;28;65985;-42
2022/01/02 01:23:03;;;;;;;10.88;8.63;;;;;;;29.26;55.48;101328.25;5018193;28;70447;-40
2022/01/02 01:25:52;;;;;;;12.52;8.32;;;;;;;29.27;55.74;101318.28;5016724;28;65797;-39
2022/01/02 01:28:41;;;;;;;11.63;7.72;;;;;;;29.26;55.53;101319.31;5012417;28;69490;-40
2022/01/02 01:31:29;;;;;;;8.75;7.93;;;;;;;29.18;55.82;101304.91;5016191;28;67211;-39
2022/01/02 01:34:17;;;;;;;13.30;8.48;;;;;;;29.29;56.00;101321.63;5017205;28;70716;-39
2022/01/02 01:37:06;;;;;;;11.25;9.45;;;;;;;29.29;55.14;101322.44;5017666;28;67168;-39
2022/01/02 01:39:59;;;;;;;24.43;10.77;;;;;;;29.22;55.35;101313.47;5006494;28;70653;-40
2022/01/02 01:42:58;;;;;;;11.98;9.73;;;;;;;29.01;54.88;101283.81;5018257;28;66105;-40
2022/01/02 01:45:53;;;;;;;18.83;10.13;;;;;;;29.11;54.39;101308.59;5015959;28;70279;-41
2022/01/02 01:48:49;;;;;;;18.70;9.40;;;;;;;29.08;54.47;101315.25;5012096;28;66433;-40
2022/01/02 01:51:38;;;;;;;13.68;9.50;;;;;;;29.01;54.31;101319.75;5013434;28;70421;-41
2022/01/02 01:54:26;;;;;;;10.55;8.70;;;;;;;29.01;54.62;101318.91;5014441;28;66573;-40
2022/01/02 01:57:15;;;;;;;22.55;10.43;;;;;;;28.98;54.73;101322.00;5020195;28;70079;-39
2022/01/02 02:00:10;;;;;;;19.77;11.45;;;;;;;28.94;55.22;101330.47;5017930;28;66267;-41
2022/01/02 02:03:04;;;;;;;28.08;11.77;;;;;;;28.97;55.41;101318.47;5014645;28;69889;-39
2022/01/02 02:05:53;;;;;;;20.60;12.10;;;;;;;28.95;55.41;101317.84;5019607;28;65999;-41
2022/01/02 02:08:42;;;;;;;21.75;12.88;;;;;;;29.01;55.34;101308.13;5017561;28;69820;-40
2022/01/02 02:11:31;;;;;;;23.30;14.60;;;;;;;29.02;55.44;101313.31;5030513;28;66307;-40
2022/01/02 02:14:20;;;;;;;23.23;13.73;;;;;;;29.06;55.44;101311.94;5014298;28;69821;-44
2022/01/02 02:17:09;;;;;;;35.47;14.32;;;;;;;29.07;54.91;101305.47;5016983;28;66225;-40
2022/01/02 02:19:59;;;;;;;21.55;13.65;;;;;;;29.11;55.33;101303.19;5015744;28;70177;-40
2022/01/02 02:22:52;;;;;;;26.83;13.65;;;;;;;29.13;54.97;101301.16;5015892;28;65816;-41
2022/01/02 02:25:42;;;;;;;20.60;13.23;;;;;;;29.15;55.10;101304.50;5032129;28;69528;-42
2022/01/02 02:28:32;;;;;;;28.80;13.23;;;;;;;29.13;55.23;101301.16;5004830;28;65694;-42
2022/01/02 02:31:21;;;;;;;14.15;11.95;;;;;;;29.18;54.88;101293.28;5029722;28;69522;-41
2022/01/02 02:34:10;;;;;;;27.15;10.73;;;;;;;29.23;54.69;101301.63;5018422;28;66599;-41
2022/01/02 02:36:58;;;;;;;18.92;10.40;;;;;;;29.26;54.48;101289.59;5012356;28;69758;-41
2022/01/02 02:39:50;;;;;;;24.92;11.75;;;;;;;29.16;54.01;101273.72;5019645;28;66187;-39
2022/01/02 02:54:48;;;;;;;14.45;11.80;;;;;;;29.53;53.69;101298.66;5011121;28;70625;-40
2022/01/02 02:57:39;;;;;;;18.23;11.15;;;;;;;29.59;53.16;101289.75;5028984;28;66296;-41
2022/01/02 03:00:27;;;;;;;23.92;12.20;;;;;;;29.61;53.24;101287.66;5012407;28;69173;-41
2022/01/02 03:03:16;;;;;;;17.77;11.50;;;;;;;29.65;52.90;101283.56;5019793;28;66572;-40
2022/01/02 03:06:05;;;;;;;25.80;12.68;;;;;;;29.71;52.71;101288.16;5019568;28;70059;-42
2022/01/02 03:08:54;;;;;;;16.60;12.65;;;;;;;29.72;52.31;101283.56;5027524;28;66224;-41
2022/01/02 03:11:43;;;;;;;16.52;12.85;;;;;;;29.74;52.78;101273.41;5015939;28;69452;-42
2022/01/02 03:14:32;;;;;;;21.25;13.25;;;;;;;29.76;53.06;101272.16;5020277;28;66243;-40
2022/01/02 03:17:21;;;;;;;26.02;14.93;;;;;;;29.79;52.99;101265.53;5031574;28;70407;-41
2022/01/02 03:20:10;;;;;;;24.20;14.25;;;;;;;29.80;52.72;101262.59;5014560;28;66410;-43
2022/01/02 03:22:58;;;;;;;30.63;15.70;;;;;;;29.74;52.69;101239.06;5030663;28;69418;-42
2022/01/02 03:25:47;;;;;;;26.05;15.48;;;;;;;29.91;52.74;101253.06;5007861;28;65999;-41
2022/01/02 03:28:35;;;;;;;20.65;15.02;;;;;;;29.95;52.72;101256.16;5001344;28;70055;-41
2022/01/02 03:31:23;;;;;;;26.38;15.80;;;;;;;29.99;52.73;101247.44;5005006;28;66436;-41
2022/01/02 03:34:12;;;;;;;28.38;15.95;;;;;;;30.04;53.65;101244.13;5013033;28;70256;-41
2022/01/02 03:37:01;;;;;;;35.58;16.27;;;;;;;30.09;53.13;101236.25;5008829;28;65325;-44
2022/01/02 03:39:51;;;;;;;33.00;18.00;;;;;;;30.16;52.99;101228.94;5009528;28;70219;-42
2022/01/02 03:42:40;;;;;;;29.10;15.23;;;;;;;30.22;52.66;101230.84;5015438;28;66516;-41
2022/01/02 03:45:30;;;;;;;18.65;13.50;;;;;;;30.27;52.66;101232.94;5013070;28;69389;-42
2022/01/02 03:48:20;;;;;;;17.67;13.50;;;;;;;30.30;52.20;101232.53;5011550;28;65578;-41
2022/01/02 03:51:09;;;;;;;23.10;13.27;;;;;;;30.35;51.56;101231.91;5015693;28;69537;-41
2022/01/02 03:53:57;;;;;;;31.38;14.35;;;;;;;30.38;51.15;101223.38;5016956;28;66266;-41
2022/01/02 03:56:50;;;;;;;20.30;12.90;;;;;;;30.45;51.17;101224.19;5018118;28;70291;-41
2022/01/02 03:59:38;;;;;;;24.20;11.52;;;;;;;30.46;50.54;101213.16;5015973;28;66679;-42
2022/01/02 04:02:29;;;;;;;15.55;10.38;;;;;;;30.46;50.38;101199.63;5028209;28;69778;-40
2022/01/02 04:05:17;;;;;;;13.57;10.25;;;;;;;30.45;50.14;101199.81;5025932;28;65854;-42
2022/01/02 04:08:08;;;;;;;20.63;12.05;;;;;;;30.45;51.04;101197.13;5011218;28;70907;-42
2022/01/02 04:10:56;;;;;;;17.58;11.02;;;;;;;30.45;50.99;101183.59;5011508;28;66571;-43
2022/01/02 04:13:45;;;;;;;28.25;12.18;;;;;;;30.48;51.40;101194.00;5010051;28;70494;-41
2022/01/02 04:16:34;;;;;;;24.92;14.32;;;;;;;30.52;50.57;101187.13;5011384;28;66700;-41
2022/01/02 04:19:23;;;;;;;18.25;13.52;;;;;;;30.55;51.23;101181.28;5013564;28;70246;-41
2022/01/02 04:22:12;;;;;;;26.38;14.13;;;;;;;30.60;50.97;101175.25;5013181;28;65834;-41
2022/01/02 04:25:01;;;;;;;25.30;15.18;;;;;;;30.61;51.00;101168.78;5012699;28;70207;-41
2022/01/02 04:27:50;;;;;;;22.55;13.32;;;;;;;30.62;50.76;101163.16;5014189;28;66117;-41
2022/01/02 04:30:39;;;;;;;24.40;13.15;;;;;;;30.63;50.89;101162.09;5011542;28;70445;-43
2022/01/02 04:33:28;;;;;;;27.90;13.40;;;;;;;30.62;50.89;101154.19;5023072;28;66458;-42
2022/01/02 04:36:16;;;;;;;27.67;14.35;;;;;;;30.62;51.11;101144.22;5012009;28;70163;-41
2022/01/02 04:39:05;;;;;;;24.90;13.65;;;;;;;30.66;50.75;101139.19;5026201;28;65493;-42
2022/01/02 04:41:54;;;;;;;20.67;14.07;;;;;;;30.69;50.27;101139.59;5010096;28;69533;-42
2022/01/02 04:44:42;;;;;;;23.00;14.70;;;;;;;30.73;50.58;101138.13;5009074;28;65682;-43
2022/01/02 04:47:33;;;;;;;18.85;12.98;;;;;;;30.76;50.55;101133.31;5011514;28;70431;-41
2022/01/02 04:50:23;;;;;;;18.67;13.07;;;;;;;30.76;51.30;101125.19;5011281;28;66249;-41
2022/01/02 04:53:12;;;;;;;15.80;12.50;;;;;;;30.72;51.35;101122.91;5013263;28;70657;-42
2022/01/02 04:56:02;;;;;;;24.42;13.15;;;;;;;30.69;51.88;101117.94;5006178;28;66668;-41
2022/01/02 04:58:51;;;;;;;14.98;13.20;;;;;;;30.71;52.16;101105.00;5004205;28;70780;-42
2022/01/02 05:01:40;;;;;;;15.35;12.52;;;;;;;30.70;52.20;101097.94;5010595;28;65568;-41
2022/01/02 05:04:29;;;;;;;18.15;12.10;;;;;;;30.68;52.41;101100.03;5011473;28;69837;-41
2022/01/02 05:07:18;;;;;;;16.42;13.02;;;;;;;30.66;52.65;101085.03;5006898;28;66682;-42
2022/01/02 05:10:07;;;;;;;14.73;12.68;;;;;;;30.68;52.71;101088.38;5012573;28;69717;-41
2022/01/02 05:12:56;;;;;;;14.68;12.40;;;;;;;30.69;52.66;101085.44;5010859;28;66170;-41
2022/01/02 05:15:45;;;;;;;17.77;12.40;;;;;;;30.54;52.77;101052.38;5007469;28;70024;-41
2022/01/02 05:18:33;;;;;;;13.95;12.68;;;;;;;30.69;52.50;101074.59;5012291;28;66927;-41
2022/01/02 05:21:23;;;;;;;15.25;12.65;;;;;;;30.71;52.80;101066.28;5015119;28;69927;-41
2022/01/02 05:24:12;;;;;;;26.60;13.00;;;;;;;30.72;53.29;101057.91;5008651;28;66577;-41
2022/01/02 05:27:03;;;;;;;29.25;15.55;;;;;;;30.73;52.57;101053.38;5014030;28;70537;-42
2022/01/02 05:29:52;;;;;;;31.10;16.15;;;;;;;30.77;52.90;101040.22;4992482;28;66701;-42
2022/01/02 05:32:41;;;;;;;34.65;16.05;;;;;;;30.82;53.31;101048.56;5008032;28;69975;-43
2022/01/02 05:35:31;;;;;;;24.10;14.80;;;;;;;30.88;53.58;101050.41;5008136;28;66666;-45
2022/01/02 05:38:21;;;;;;;29.83;14.25;;;;;;;30.89;53.50;101042.03;5004645;28;70089;-42
2022/01/02 05:41:10;;;;;;;19.40;13.88;;;;;;;30.87;53.66;101032.47;5026378;28;66357;-42
2022/01/02 05:43:58;;;;;;;27.80;14.02;;;;;;;30.85;52.88;101023.75;5018766;28;69217;-42
2022/01/02 05:46:47;;;;;;;23.17;12.90;;;;;;;30.78;51.53;101022.91;5019241;28;66625;-44
2022/01/02 05:49:37;;;;;;;17.65;13.00;;;;;;;30.64;49.88;101017.56;5010406;28;69484;-43
2022/01/02 05:52:26;;;;;;;22.55;12.88;;;;;;;30.56;49.50;101017.78;5017409;28;66737;-43
2022/01/02 05:55:15;;;;;;;15.85;12.15;;;;;;;30.52;49.31;101011.16;5020065;28;69670;-43
2022/01/02 05:58:04;;;;;;;18.52;10.77;;;;;;;30.45;48.18;100992.25;5004131;28;66378;-43
2022/01/02 06:00:53;;;;;;;12.52;11.30;;;;;;;30.33;47.68;100985.00;4922630;28;2702552;-43
2022/01/02 06:03:42;;;;;;;19.30;11.27;;;;;;;30.38;47.17;101001.44;5017563;28;66509;-43
2022/01/02 06:06:31;;;;;;;12.93;10.75;;;;;;;30.27;45.94;100990.22;5015320;28;70515;-44
2022/01/02 06:09:19;;;;;;;16.52;11.23;;;;;;;30.25;45.84;100986.88;5017202;28;66375;-42
2022/01/02 06:12:09;;;;;;;11.90;10.20;;;;;;;30.21;45.69;100985.63;5015284;28;68755;-42
2022/01/02 06:14:57;;;;;;;14.50;10.38;;;;;;;30.15;44.88;100985.69;5015120;28;65635;-44
2022/01/02 06:17:47;;;;;;;16.58;10.23;;;;;;;30.07;44.42;100978.63;5014397;28;70075;-44
2022/01/02 06:20:36;;;;;;;17.52;11.20;;;;;;;30.03;44.16;100982.78;5017084;28;66782;-42
2022/01/02 06:23:25;;;;;;;15.52;11.65;;;;;;;30.00;44.19;100983.19;5016279;28;70737;-41
2022/01/02 06:26:14;;;;;;;12.38;10.30;;;;;;;29.97;43.82;100972.81;5005946;28;66740;-42
2022/01/02 06:29:03;;;;;;;11.65;10.43;;;;;;;29.92;43.01;100975.31;5014590;28;70100;-40
2022/01/02 06:31:53;;;;;;;12.68;10.90;;;;;;;29.87;42.49;100961.63;5020450;28;66233;-40
2022/01/02 06:34:44;;;;;;;12.70;9.68;;;;;;;29.77;42.45;100946.63;5014217;28;70415;-39
2022/01/02 06:37:33;;;;;;;10.80;9.80;;;;;;;29.76;42.72;100953.09;5015453;28;65451;-40
2022/01/02 06:40:24;;;;;;;10.45;9.50;;;;;;;29.70;41.70;100945.84;5020754;28;70115;-40
2022/01/02 06:43:16;;;;;;;10.80;9.80;;;;;;;29.68;41.17;100941.69;5010612;28;66400;-41
2022/01/02 06:46:05;;;;;;;9.73;9.00;;;;;;;29.65;40.99;100945.63;5017259;28;69632;-40
2022/01/02 06:48:54;;;;;;;11.70;9.55;;;;;;;29.66;41.10;100939.19;5014906;28;66617;-42
2022/01/02 06:52:03;;;;;;;9.27;8.55;;;;;;;29.62;41.04;100927.09;5013716;28;70933;-40
2022/01/02 06:54:54;;;;;;;10.75;9.15;;;;;;;29.63;41.18;100928.78;4999140;28;66102;-40
2022/01/02 06:57:43;;;;;;;9.93;8.93;;;;;;;29.60;41.07;100919.19;5020099;28;69685;-40
2022/01/02 07:00:34;;;;;;;10.98;8.75;;;;;;;29.60;41.03;100907.56;5017275;28;66158;-41
2022/01/02 07:03:25;;;;;;;14.95;9.30;;;;;;;29.59;40.87;100912.13;5015254;28;70104;-40
2022/01/02 07:06:13;;;;;;;12.20;8.43;;;;;;;29.61;41.06;100910.06;5014475;28;66679;-41
2022/01/02 07:09:02;;;;;;;13.27;8.38;;;;;;;29.65;41.68;100905.09;5033001;28;70118;-40
2022/01/02 07:11:51;;;;;;;8.55;8.05;;;;;;;29.67;41.78;100902.16;5014194;28;66569;-40
2022/01/02 07:14:39;;;;;;;8.70;8.00;;;;;;;29.67;40.85;100897.59;5014410;28;70491;-41
2022/01/02 07:17:28;;;;;;;8.45;7.70;;;;;;;29.68;41.36;100899.25;5020145;28;65722;-41
2022/01/02 07:20:35;;;;;;;11.30;7.43;;;;;;;29.66;40.35;100895.91;5015424;28;70542;-42
2022/01/02 07:23:24;;;;;;;8.10;7.53;;;;;;;29.64;40.80;100881.78;5017915;28;67095;-40
2022/01/02 07:26:12;;;;;;;8.48;7.75;;;;;;;29.70;40.89;100886.38;5017825;28;70018;-40
2022/01/02 07:29:00;;;;;;;8.70;7.95;;;;;;;29.71;40.52;100893.41;5017763;28;66769;-39
2022/01/02 07:31:49;;;;;;;7.22;6.72;;;;;;;29.72;40.93;100892.38;5018204;28;70105;-39
2022/01/02 07:34:37;;;;;;;10.57;7.85;;;;;;;29.72;40.70;100886.13;5020007;28;66074;-42
2022/01/02 07:37:26;;;;;;;12.55;7.70;;;;;;;29.69;39.98;100884.69;5030363;28;70046;-41
2022/01/02 07:40:15;;;;;;;7.18;6.55;;;;;;;29.70;40.10;100886.38;5017853;28;66601;-41
2022/01/02 07:43:03;;;;;;;7.50;6.93;;;;;;;29.69;40.51;100879.28;5015021;28;70218;-40
2022/01/02 07:45:52;;;;;;;7.03;6.63;;;;;;;29.69;40.45;100876.56;4999443;28;65765;-41
2022/01/02 07:48:41;;;;;;;6.85;6.35;;;;;;;29.65;39.78;100882.63;5019154;28;70591;-41
2022/01/02 07:51:31;;;;;;;6.93;6.38;;;;;;;29.65;39.77;100875.34;5005488;28;66633;-41
2022/01/02 07:54:19;;;;;;;8.10;7.35;;;;;;;29.68;40.06;100877.63;5019169;28;70342;-41
2022/01/02 07:57:08;;;;;;;7.57;6.57;;;;;;;29.64;39.59;100865.56;5017714;28;65854;-40
2022/01/02 07:59:56;;;;;;;6.85;6.43;;;;;;;29.67;39.68;100870.56;5016497;28;69758;-40
2022/01/02 08:02:58;;;;;;;9.27;6.25;;;;;;;29.66;39.96;100868.88;5016756;28;65818;-40
2022/01/02 08:05:47;;;;;;;9.68;6.80;;;;;;;29.69;39.45;100873.03;5017745;28;69666;-40
2022/01/02 08:08:36;;;;;;;7.20;6.70;;;;;;;29.70;39.77;100867.44;5011761;28;66397;-40
2022/01/02 08:11:24;;;;;;;7.55;6.88;;;;;;;29.71;39.40;100882.59;5016616;28;70426;-43
2022/01/02 08:14:33;;;;;;;6.65;6.15;;;;;;;29.73;39.60;100877.00;5016383;28;66586;-40
2022/01/02 08:17:21;;;;;;;11.55;7.35;;;;;;;29.75;39.61;100873.00;5014067;28;70103;-40
2022/01/02 08:20:10;;;;;;;7.65;7.03;;;;;;;29.65;39.52;100851.03;5015875;28;65374;-41
2022/01/02 08:22:59;;;;;;;9.80;7.55;;;;;;;29.77;39.58;100870.09;5016170;28;70121;-40
2022/01/02 08:25:47;;;;;;;9.68;7.25;;;;;;;29.78;39.91;100872.63;5016670;28;66378;-41
2022/01/02 08:29:02;;;;;;;14.95;6.55;;;;;;;29.79;39.22;100874.25;5015606;28;70854;-41
2022/01/02 08:31:50;;;;;;;8.10;6.88;;;;;;;29.89;39.83;100872.97;5011050;28;66161;-40
2022/01/02 08:34:39;;;;;;;16.45;7.25;;;;;;;29.98;42.66;100872.53;5015448;28;69650;-42
2022/01/02 08:37:28;;;;;;;22.80;10.10;;;;;;;30.20;46.11;100864.94;5010548;28;65494;-43
2022/01/02 08:40:16;;;;;;;29.20;14.48;;;;;;;30.47;47.57;100864.81;5013671;28;70198;-42
2022/01/02 08:43:05;;;;;;;26.92;14.35;;;;;;;30.68;47.62;100861.75;5014154;28;65755;-40
2022/01/02 08:45:54;;;;;;;17.25;12.82;;;;;;;30.86;48.72;100854.75;5015455;28;70783;-43
2022/01/02 08:48:43;;;;;;;30.90;13.77;;;;;;;31.07;48.30;100859.81;5016890;28;66589;-43
2022/01/02 08:51:31;;;;;;;21.15;12.98;;;;;;;31.23;47.97;100860.28;5010878;28;70390;-43
2022/01/02 08:54:19;;;;;;;26.00;14.10;;;;;;;31.38;48.36;100866.22;5007884;28;66666;-43
2022/01/02 08:57:08;;;;;;;19.20;13.95;;;;;;;31.50;48.68;100853.56;5015462;28;70024;-42
2022/01/02 08:59:57;;;;;;;35.65;15.85;;;;;;;31.46;48.56;100830.69;5015729;28;65713;-42
2022/01/02 09:02:46;;;;;;;28.92;15.02;;;;;;;31.72;48.09;100866.66;5013448;28;70057;-42
2022/01/02 09:05:34;;;;;;;19.75;13.95;;;;;;;31.81;47.96;100866.13;5015350;28;65552;-41
2022/01/02 09:08:23;;;;;;;22.83;12.52;;;;;;;31.90;47.99;100869.38;5011449;28;70083;-42
2022/01/02 09:11:12;;;;;;;24.50;13.43;;;;;;;31.97;48.02;100875.56;5017761;28;65723;-41
2022/01/02 09:14:02;;;;;;;37.20;13.77;;;;;;;32.02;48.09;100870.28;5012104;28;70114;-41
2022/01/02 09:16:50;;;;;;;22.23;13.00;;;;;;;32.08;48.23;100881.28;5019087;28;67723;-40
2022/01/02 09:19:39;;;;;;;24.67;13.40;;;;;;;32.12;49.47;100883.31;5012652;28;70251;-41
2022/01/02 09:22:28;;;;;;;35.50;13.32;;;;;;;32.17;49.98;100891.59;5012446;28;66719;-42
2022/01/02 09:25:16;;;;;;;29.95;13.18;;;;;;;32.20;51.44;100885.69;5018524;28;70153;-41
2022/01/02 09:28:05;;;;;;;30.65;13.65;;;;;;;32.24;52.05;100892.34;5018605;28;66177;-41
2022/01/02 09:30:53;;;;;;;25.20;13.85;;;;;;;32.27;52.20;100901.91;5015093;28;70559;-42
2022/01/02 09:33:42;;;;;;;20.42;12.30;;;;;;;32.27;52.65;100896.50;5020204;28;66957;-41
2022/01/02 09:36:30;;;;;;;21.05;12.27;;;;;;;32.30;52.55;100916.91;5020146;28;69944;-41
2022/01/02 09:39:19;;;;;;;20.23;11.90;;;;;;;32.30;52.54;100906.06;5019460;28;66539;-40
2022/01/02 09:42:11;;;;;;;23.83;12.38;;;;;;;32.31;53.28;100924.00;5017619;28;70432;-41
2022/01/02 09:45:00;;;;;;;23.08;13.18;;;;;;;32.25;53.68;100925.75;5019301;28;66486;-41
2022/01/02 09:47:50;;;;;;;25.75;12.57;;;;;;;32.25;53.73;100926.56;5020388;28;69321;-42
2022/01/02 09:50:40;;;;;;;27.25;12.35;;;;;;;32.24;54.27;100934.94;5021848;28;65782;-42
2022/01/02 09:53:28;;;;;;;27.70;14.18;;;;;;;32.19;53.99;100937.50;5012789;28;69361;-41
2022/01/02 09:55:59;;;;;;;22.00;12.65;;;;;;;32.20;54.16;100939.16;5017233;28;65335;-39
2022/01/02 09:58:30;;;;;;;22.00;11.77;;;;;;;32.16;53.98;100944.22;5020116;28;70160;-40
2022/01/02 10:01:01;;;;;;;27.85;12.52;;;;;;;32.11;54.39;100935.09;5018909;28;67206;-41
2022/01/02 10:03:46;;;;;;;32.90;13.60;;;;;;;31.97;55.74;100918.97;5020204;28;70073;-41
2022/01/02 10:06:18;;;;;;;31.10;13.15;;;;;;;32.13;55.05;100943.84;5017502;28;66246;-42
2022/01/02 10:08:48;;;;;;;44.05;12.93;;;;;;;32.10;55.72;100941.59;5020110;28;69134;-40
2022/01/02 10:11:25;;;;;;;48.55;11.68;;;;;;;32.10;55.36;100944.31;5014758;28;66354;-40
2022/01/02 10:14:05;;;;;;;37.55;12.57;;;;;;;31.96;55.51;100925.47;5013203;28;70663;-40
2022/01/02 10:16:41;;;;;;;33.80;13.82;;;;;;;31.90;55.48;100922.78;5015652;28;66146;-42
2022/01/02 10:19:36;;;;;;;34.05;11.82;;;;;;;31.86;55.85;100929.75;5017233;28;70509;-41
2022/01/02 10:22:07;;;;;;;29.90;13.20;;;;;;;31.87;55.14;100937.63;5018023;28;65984;-42
2022/01/02 10:24:47;;;;;;;36.17;13.93;;;;;;;32.02;55.39;100959.84;5019371;28;69777;-41
2022/01/02 10:27:21;;;;;;;36.60;15.10;;;;;;;31.92;55.62;100943.25;5011365;28;66370;-41
2022/01/02 10:29:58;;;;;;;51.65;16.10;;;;;;;32.04;55.59;100963.16;5018753;28;70957;-41
2022/01/02 10:32:37;;;;;;;53.20;17.00;;;;;;;31.92;56.59;100954.09;5016162;28;66668;-42
2022/01/02 10:35:12;;;;;;;47.33;16.50;;;;;;;31.81;56.46;100935.81;5015342;28;71053;-43
2022/01/02 10:37:50;;;;;;;37.92;15.32;;;;;;;32.04;55.83;100973.19;5001681;28;66312;-40
2022/01/02 10:40:39;;;;;;;35.92;14.45;;;;;;;31.95;57.41;100969.91;5010593;28;69997;-40
2022/01/02 10:43:32;;;;;;;35.65;15.90;;;;;;;31.96;58.37;100977.03;5015571;28;66232;-41
2022/01/02 10:46:09;;;;;;;40.97;18.45;;;;;;;32.04;57.76;100984.88;5017852;28;70276;-41
2022/01/02 10:48:42;;;;;;;31.08;17.95;;;;;;;31.92;56.61;100959.53;5013982;28;66315;-42
2022/01/02 10:51:17;;;;;;;36.13;18.60;;;;;;;31.77;56.43;100929.22;5009380;28;70199;-41
2022/01/02 10:53:56;;;;;;;47.35;20.88;;;;;;;31.86;57.00;100954.97;5016951;28;65871;-41
2022/01/02 10:56:30;;;;;;;47.42;22.02;;;;;;;31.83;56.60;100960.84;5015612;28;69637;-41
2022/01/02 10:59:02;;;;;;;44.95;20.55;;;;;;;31.96;56.21;100987.88;5032732;28;65117;-40
2022/01/02 11:01:33;;;;;;;43.35;18.38;;;;;;;31.94;56.57;100997.28;5019016;28;70104;-41
2022/01/02 11:04:05;;;;;;;36.92;18.52;;;;;;;31.94;56.88;101005.44;5018080;28;66521;-41
2022/01/02 11:06:36;;;;;;;39.20;17.23;;;;;;;31.89;57.41;100997.91;5016533;28;70356;-41
2022/01/02 11:09:07;;;;;;;29.40;16.98;;;;;;;31.89;56.87;101008.78;5015742;28;65238;-41
2022/01/02 11:11:38;;;;;;;29.50;16.58;;;;;;;31.86;57.04;101002.97;5017145;28;70218;-41
2022/01/02 11:14:09;;;;;;;32.28;16.20;;;;;;;31.90;57.57;101015.03;5015600;28;66383;-41
2022/01/02 11:16:39;;;;;;;32.38;16.48;;;;;;;31.87;57.23;101013.59;5014673;28;70083;-42
2022/01/02 11:19:12;;;;;;;21.13;14.15;;;;;;;31.79;57.16;101008.47;5016673;28;65897;-41
2022/01/02 11:21:46;;;;;;;27.75;14.35;;;;;;;31.87;57.36;101021.72;5018894;28;70317;-41
2022/01/02 11:24:29;;;;;;;21.80;14.35;;;;;;;31.68;58.39;100995.63;5012746;28;65285;-42
2022/01/02 11:27:12;;;;;;;28.20;13.93;;;;;;;31.72;58.35;101005.00;5016929;28;69158;-41
2022/01/02 11:29:43;;;;;;;27.30;12.90;;;;;;;31.80;57.85;101032.66;5017881;28;65968;-42
2022/01/02 11:32:25;;;;;;;28.27;11.68;;;;;;;31.58;58.45;101015.13;5017423;28;69897;-43
2022/01/02 11:34:56;;;;;;;;;;;;;;;31.53;59.51;101040.19;5015365;28;66498;-43
2022/01/02 11:37:29;;;;;;;22.20;11.20;;;;;;;31.68;58.24;101030.88;5019828;28;70020;-42
2022/01/02 11:40:03;;;;;;;25.43;12.17;;;;;;;31.55;58.49;101013.69;5016706;28;66438;-41
2022/01/02 11:42:42;;;;;;;26.92;12.52;;;;;;;31.72;58.99;101040.25;5010890;28;69503;-41
2022/01/02 11:45:23;;;;;;;21.20;10.95;;;;;;;31.64;57.67;101043.22;5017622;28;66258;-42
2022/01/02 11:48:01;;;;;;;24.42;11.60;;;;;;;31.65;58.34;101056.59;5015557;28;69649;-42
2022/01/02 11:50:49;;;;;;;23.35;11.65;;;;;;;31.65;58.31;101050.31;5015307;28;66293;-42
2022/01/02 11:53:25;;;;;;;25.67;11.60;;;;;;;31.64;58.15;101064.94;5010146;28;71062;-41
2022/01/02 11:55:55;;;;;;;28.95;11.73;;;;;;;31.63;58.50;101064.09;5016944;28;66505;-41
2022/01/02 11:58:38;;;;;;;27.33;11.52;;;;;;;31.61;59.73;101067.03;5015446;28;71016;-40
2022/01/02 12:01:09;;;;;;;19.35;11.52;;;;;;;31.66;59.17;101063.66;5014207;28;66231;-41
2022/01/02 12:03:46;;;;;;;40.17;11.25;;;;;;;31.73;59.02;101071.72;5012645;28;71054;-41
2022/01/02 12:06:25;;;;;;;25.20;11.13;;;;;;;31.73;57.33;101079.88;5019392;28;65345;-42
2022/01/02 12:08:55;;;;;;;23.90;11.18;;;;;;;31.60;55.72;101067.25;5029086;28;70350;-41
2022/01/02 12:11:37;;;;;;;19.48;10.45;;;;;;;31.40;53.86;101064.69;5010543;28;66246;-45
2022/01/02 12:14:59;;;;;;;45.00;11.20;;;;;;;31.28;52.83;101085.38;5004853;28;70023;-40
2022/01/02 12:18:08;;;;;;;23.13;10.43;;;;;;;31.17;51.52;101093.19;5017968;28;66563;-40
2022/01/02 12:20:56;;;;;;;17.95;10.90;;;;;;;31.09;50.68;101096.13;5015583;28;70763;-39
2022/01/02 12:23:44;;;;;;;20.60;10.40;;;;;;;31.02;49.75;101102.63;5016326;28;66183;-39
2022/01/02 12:26:20;;;;;;;28.23;10.20;;;;;;;30.76;50.88;101084.56;5015348;28;70097;-41
2022/01/02 12:28:58;;;;;;;14.07;9.50;;;;;;;30.89;49.45;101114.34;5015993;28;66188;-41
2022/01/02 12:31:32;;;;;;;17.70;10.25;;;;;;;30.84;49.29;101116.84;5010922;28;70159;-39
2022/01/02 12:34:17;;;;;;;18.05;9.75;;;;;;;30.72;47.39;101117.50;5010900;28;67184;-40
2022/01/02 12:36:49;;;;;;;31.92;9.80;;;;;;;30.54;49.67;101093.00;5001662;28;70125;-41
2022/01/02 12:39:30;;;;;;;24.48;8.95;;;;;;;30.68;47.70;101129.81;5012911;28;65531;-42
2022/01/02 12:42:14;;;;;;;16.20;8.20;;;;;;;30.60;46.40;101134.63;5013506;28;70363;-41
2022/01/02 12:44:44;;;;;;;22.77;8.63;;;;;;;30.57;47.06;101135.88;5013457;28;66251;-39
2022/01/02 12:47:28;;;;;;;14.63;8.73;;;;;;;30.53;47.60;101141.94;5015869;28;70127;-41
2022/01/02 12:49:59;;;;;;;18.85;8.32;;;;;;;30.47;46.34;101151.72;5014362;28;66398;-40
2022/01/02 12:52:30;;;;;;;13.70;8.55;;;;;;;30.44;46.01;101152.16;5021570;28;70169;-39
2022/01/02 12:55:00;;;;;;;20.15;7.28;;;;;;;30.37;46.34;101152.19;5016932;28;64528;-39
2022/01/02 12:57:31;;;;;;;10.38;7.80;;;;;;;30.34;45.46;101157.16;5014202;28;70276;-40